createdAt,value
2018-08-16T00:00:02.141Z,7.97
2018-08-16T00:06:07.756Z,7.17
2018-08-16T00:12:12.613Z,7.80
2018-08-16T00:18:17.834Z,7.40
2018-08-16T00:24:22.663Z,7.77
2018-08-16T00:30:27.421Z,7.00
2018-08-16T00:36:33.774Z,8.37
2018-08-16T00:42:38.977Z,8.03
2018-08-16T00:48:43.746Z,8.37
2018-08-16T00:54:48.542Z,8.47
2018-08-16T01:00:53.326Z,8.17
2018-08-16T01:06:58.133Z,8.83
2018-08-16T01:13:03.915Z,9.30
2018-08-16T01:19:08.954Z,9.03
2018-08-16T01:25:14.461Z,9.10
2018-08-16T01:31:19.197Z,8.40
2018-08-16T01:37:24.108Z,8.37
2018-08-16T01:43:29.453Z,8.07
2018-08-16T01:49:35.792Z,8.13
2018-08-16T01:55:41.005Z,8.50
2018-08-16T02:01:46.000Z,8.17
2018-08-16T02:07:51.101Z,9.67
2018-08-16T02:13:56.193Z,9.57
2018-08-16T02:20:01.745Z,9.60
2018-08-16T02:26:06.757Z,9.80
2018-08-16T02:32:12.138Z,11.43
2018-08-16T02:38:16.893Z,12.03
2018-08-16T02:44:21.680Z,11.27
2018-08-16T02:50:26.376Z,10.87
2018-08-16T02:56:31.586Z,11.60
2018-08-16T03:02:37.528Z,10.87
2018-08-16T03:08:42.548Z,12.13
2018-08-16T03:14:47.287Z,11.30
2018-08-16T03:20:52.109Z,10.90
2018-08-16T03:26:56.837Z,10.00
2018-08-16T03:33:02.103Z,10.00
2018-08-16T03:39:09.578Z,10.50
2018-08-16T03:45:14.305Z,10.53
2018-08-16T03:51:19.257Z,10.80
2018-08-16T03:57:23.997Z,10.80
2018-08-16T04:03:29.578Z,10.33
2018-08-16T04:09:35.217Z,10.60
2018-08-16T04:15:39.937Z,10.73
2018-08-16T04:21:45.596Z,10.80
2018-08-16T04:27:51.341Z,10.40
2018-08-16T04:33:56.151Z,10.20
2018-08-16T04:40:01.427Z,10.30
2018-08-16T04:46:06.711Z,10.03
2018-08-16T04:52:11.641Z,8.70
2018-08-16T04:58:16.620Z,10.07
2018-08-16T05:04:21.750Z,8.50
2018-08-16T05:10:26.492Z,9.33
2018-08-16T05:16:31.623Z,9.70
2018-08-16T05:22:36.614Z,9.60
2018-08-16T05:28:41.437Z,8.80
2018-08-16T05:34:46.196Z,9.37
2018-08-16T05:40:50.996Z,10.30
2018-08-16T05:46:55.930Z,10.90
2018-08-16T05:53:01.294Z,10.07
2018-08-16T05:59:06.850Z,9.20
2018-08-16T06:05:13.228Z,7.90
2018-08-16T06:11:18.031Z,8.00
2018-08-16T06:17:23.093Z,8.20
2018-08-16T06:23:29.131Z,8.00
2018-08-16T06:29:34.307Z,8.30
2018-08-16T06:35:39.144Z,7.47
2018-08-16T06:41:44.656Z,7.47
2018-08-16T06:47:50.305Z,6.90
2018-08-16T06:53:55.149Z,7.63
2018-08-16T07:00:00.343Z,6.23
2018-08-16T07:06:05.223Z,6.20
2018-08-16T07:12:10.437Z,6.47
2018-08-16T07:18:15.340Z,5.70
2018-08-16T07:24:20.421Z,7.30
2018-08-16T07:30:25.728Z,6.60
2018-08-16T07:36:30.898Z,5.77
2018-08-16T07:42:36.095Z,6.57
2018-08-16T07:48:40.841Z,6.10
2018-08-16T07:54:45.901Z,6.47
2018-08-16T08:00:50.699Z,5.90
2018-08-16T08:06:55.438Z,6.60
2018-08-16T08:13:01.006Z,6.60
2018-08-16T08:19:06.557Z,6.47
2018-08-16T08:25:11.788Z,6.30
2018-08-16T08:31:16.872Z,6.37
2018-08-16T08:37:38.515Z,6.30
2018-08-16T08:44:00.387Z,6.00
2018-08-16T08:50:07.168Z,6.97
2018-08-16T08:57:33.693Z,5.30
2018-08-16T09:03:38.460Z,5.37
2018-08-16T09:11:10.128Z,5.20
2018-08-16T09:17:15.100Z,5.87
2018-08-16T09:23:20.222Z,5.80
2018-08-16T09:30:41.704Z,5.80
2018-08-16T09:36:46.481Z,4.90
2018-08-16T09:42:51.359Z,4.40
2018-08-16T09:48:56.258Z,3.60
2018-08-16T09:55:01.653Z,3.27
2018-08-16T10:01:13.031Z,3.67
2018-08-16T10:07:18.006Z,3.50
2018-08-16T10:13:22.735Z,3.27
2018-08-16T10:19:28.316Z,3.10
2018-08-16T10:25:34.244Z,3.40
2018-08-16T10:31:38.980Z,3.70
2018-08-16T10:37:43.695Z,3.37
2018-08-16T10:43:48.537Z,3.93
2018-08-16T10:49:53.333Z,3.13
2018-08-16T10:55:59.098Z,3.37
2018-08-16T11:02:04.897Z,3.40
2018-08-16T11:08:10.104Z,2.80
2018-08-16T11:14:14.793Z,2.93
2018-08-16T11:20:19.419Z,3.13
2018-08-16T11:26:24.136Z,3.03
2018-08-16T11:32:29.249Z,3.43
2018-08-16T11:38:34.519Z,2.77
2018-08-16T11:44:39.406Z,2.80
2018-08-16T11:50:44.194Z,3.27
2018-08-16T11:56:48.963Z,2.70
2018-08-16T12:02:53.691Z,2.50
2018-08-16T12:08:58.667Z,2.50
2018-08-16T12:15:04.036Z,3.03
2018-08-16T12:21:09.008Z,3.03
2018-08-16T12:27:13.697Z,3.10
2018-08-16T12:33:18.565Z,2.40
2018-08-16T12:39:23.263Z,2.77
2018-08-16T12:45:28.148Z,3.20
2018-08-16T12:51:33.533Z,2.93
2018-08-16T12:57:38.282Z,3.00
2018-08-16T13:03:43.171Z,2.80
2018-08-16T13:09:48.305Z,2.60
2018-08-16T13:15:53.212Z,3.00
2018-08-16T13:21:57.957Z,3.47
2018-08-16T13:28:04.901Z,2.80
2018-08-16T13:34:10.409Z,3.00
2018-08-16T13:40:15.273Z,3.50
2018-08-16T13:46:20.697Z,3.07
2018-08-16T13:52:25.445Z,2.93
2018-08-16T13:58:31.245Z,2.70
2018-08-16T14:04:36.953Z,2.50
2018-08-16T14:10:41.938Z,2.87
2018-08-16T14:16:46.737Z,3.27
2018-08-16T14:22:51.748Z,2.77
2018-08-16T14:28:56.736Z,2.87
2018-08-16T14:35:04.196Z,2.83
2018-08-16T14:41:09.010Z,3.30
2018-08-16T14:47:13.837Z,2.83
2018-08-16T14:53:18.488Z,3.20
2018-08-16T14:59:23.423Z,2.70
2018-08-16T15:05:29.475Z,3.10
2018-08-16T15:11:34.629Z,2.80
2018-08-16T15:17:39.365Z,3.40
2018-08-16T15:23:44.188Z,2.73
2018-08-16T15:29:48.930Z,3.87
2018-08-16T15:35:53.703Z,3.20
2018-08-16T15:41:58.427Z,3.70
2018-08-16T15:48:05.650Z,3.07
2018-08-16T15:54:10.598Z,3.00
2018-08-16T16:00:15.461Z,3.10
2018-08-16T16:06:20.256Z,3.20
2018-08-16T16:12:24.837Z,3.70
2018-08-16T16:18:29.643Z,4.37
2018-08-16T16:24:34.799Z,4.10
2018-08-16T16:30:39.787Z,3.80
2018-08-16T16:36:44.507Z,2.43
2018-08-16T16:50:27.043Z,3.37
2018-08-16T16:56:32.762Z,3.33
2018-08-16T17:02:37.942Z,3.20
2018-08-16T17:08:42.749Z,3.20
2018-08-16T17:14:47.386Z,2.80
2018-08-16T17:20:52.236Z,2.60
2018-08-16T17:26:57.026Z,3.23
2018-08-16T17:33:02.443Z,3.20
2018-08-16T17:39:08.281Z,4.20
2018-08-16T17:45:13.010Z,3.00
2018-08-16T17:51:17.684Z,2.60
2018-08-16T17:57:22.384Z,2.97
2018-08-16T18:03:27.166Z,3.07
2018-08-16T18:09:32.430Z,2.90
2018-08-16T18:15:37.554Z,2.50
2018-08-16T18:21:42.321Z,3.40
2018-08-16T18:27:47.049Z,2.90
2018-08-16T18:33:51.811Z,2.60
2018-08-16T18:39:56.997Z,2.70
2018-08-16T18:46:02.333Z,3.00
2018-08-16T18:52:07.165Z,2.73
2018-08-16T18:58:11.814Z,2.80
2018-08-16T19:04:16.491Z,3.03
2018-08-16T19:10:21.347Z,2.80
2018-08-16T19:16:26.045Z,3.50
2018-08-16T19:22:31.265Z,3.40
2018-08-16T19:28:36.920Z,3.10
2018-08-16T19:34:41.597Z,3.67
2018-08-16T19:40:46.698Z,3.00
2018-08-16T19:46:51.358Z,3.07
2018-08-16T19:52:56.024Z,3.60
2018-08-16T19:59:01.966Z,3.30
2018-08-16T20:05:07.470Z,3.50
2018-08-16T20:11:12.237Z,3.97
2018-08-16T20:17:16.964Z,3.40
2018-08-16T20:23:21.747Z,3.13
2018-08-16T20:29:26.487Z,3.40
2018-08-16T20:35:31.405Z,3.70
2018-08-16T20:41:36.238Z,4.30
2018-08-16T20:47:40.974Z,3.20
2018-08-16T20:53:45.592Z,4.10
2018-08-16T20:59:50.919Z,4.13
2018-08-16T21:05:55.638Z,3.67
2018-08-16T21:12:00.920Z,3.50
2018-08-16T21:18:05.893Z,3.67
2018-08-16T21:24:10.785Z,4.40
2018-08-16T21:30:15.675Z,4.37
2018-08-16T21:36:20.759Z,3.77
2018-08-16T21:42:25.556Z,3.70
2018-08-16T21:48:31.332Z,4.10
2018-08-16T21:54:36.342Z,4.60
2018-08-16T22:00:51.711Z,4.77
2018-08-16T22:08:30.299Z,3.93
2018-08-16T22:14:35.345Z,4.53
2018-08-16T22:20:40.259Z,4.37
2018-08-16T22:26:45.026Z,4.97
2018-08-16T22:32:50.054Z,4.43
2018-08-16T22:38:54.902Z,5.13
2018-08-16T22:44:59.939Z,5.00
2018-08-16T22:51:04.780Z,5.13
2018-08-16T22:57:09.482Z,5.07
2018-08-16T23:03:14.104Z,5.10
2018-08-16T23:09:18.825Z,4.87
2018-08-16T23:15:23.642Z,5.80
2018-08-16T23:21:28.548Z,6.27
2018-08-16T23:27:33.837Z,7.70
2018-08-16T23:33:38.943Z,6.57
2018-08-16T23:39:43.695Z,8.53
2018-08-16T23:45:48.352Z,7.83
2018-08-16T23:51:53.263Z,9.60
2018-08-16T23:57:58.697Z,8.90
